Time;durP1;ratioP1;P1;durP2;ratioP2;P2;SDS_P1;SDS_P2;PMS_P1;PMS_P2;Temp;Humidity;BMP_temperature;BMP_pressure;BME280_temperature;BME280_humidity;BME280_pressure;Samples;Min_cycle;Max_cycle;Signal;HPM_P1;HPM_P2
2021/07/20 05:13:51;;;;;;;16.55;8.60;;;17.80;81.60;;;;;;5109912;27;20350;-67
2021/07/20 05:16:16;;;;;;;14.95;9.45;;;17.90;81.80;;;;;;5100408;28;20052;-69
2021/07/20 05:18:45;;;;;;;14.40;8.75;;;17.80;81.60;;;;;;5100187;28;20036;-68
2021/07/20 05:21:11;;;;;;;15.98;9.85;;;17.80;81.30;;;;;;5100488;28;20051;-68
2021/07/20 05:23:38;;;;;;;15.75;9.85;;;17.80;81.30;;;;;;5100379;28;20040;-68
2021/07/20 05:26:03;;;;;;;17.05;10.18;;;17.80;81.40;;;;;;5099970;28;20036;-68
2021/07/20 05:28:30;;;;;;;19.02;10.93;;;17.80;81.60;;;;;;5099910;28;20032;-68
2021/07/20 05:30:57;;;;;;;18.40;9.85;;;17.90;81.80;;;;;;5099859;28;20032;-68
2021/07/20 05:33:22;;;;;;;17.65;11.07;;;17.80;81.30;;;;;;5100174;28;20231;-68
2021/07/20 05:35:52;;;;;;;17.20;9.93;;;17.90;81.60;;;;;;5100218;28;20036;-68
2021/07/20 05:38:18;;;;;;;20.02;10.32;;;17.90;80.80;;;;;;5099827;28;20035;-68
2021/07/20 05:40:43;;;;;;;15.63;10.05;;;17.90;81.10;;;;;;5100075;28;20087;-69
2021/07/20 05:43:10;;;;;;;15.57;9.52;;;17.90;81.10;;;;;;5099606;28;20106;-67
2021/07/20 05:45:36;;;;;;;20.30;10.13;;;17.90;80.90;;;;;;5099982;28;20326;-68
2021/07/20 05:48:01;;;;;;;16.98;10.38;;;17.90;80.80;;;;;;5100208;28;20024;-68
2021/07/20 05:50:27;;;;;;;15.88;10.15;;;18.10;80.70;;;;;;5099822;28;20241;-68
2021/07/20 05:52:52;;;;;;;16.08;10.15;;;18.10;81.00;;;;;;5070413;28;20115;-68
2021/07/20 05:55:19;;;;;;;17.38;10.55;;;18.10;80.50;;;;;;5087676;28;20082;-68
2021/07/20 05:57:48;;;;;;;15.85;10.38;;;18.20;80.20;;;;;;5079825;28;20051;-68
2021/07/20 06:00:15;;;;;;;21.60;10.88;;;18.20;80.60;;;;;;5079759;28;20070;-68
2021/07/20 06:02:40;;;;;;;19.45;10.43;;;18.30;80.00;;;;;;5062638;28;20047;-68
2021/07/20 06:05:07;;;;;;;17.08;10.50;;;18.30;79.60;;;;;;5062585;28;20037;-68
2021/07/20 06:07:33;;;;;;;16.65;10.70;;;18.40;80.00;;;;;;5062178;28;20048;-68
2021/07/20 06:09:59;;;;;;;20.58;10.23;;;18.50;79.80;;;;;;5078648;28;20320;-67
2021/07/20 06:12:26;;;;;;;17.27;10.70;;;18.50;79.20;;;;;;5062208;28;20045;-67
2021/07/20 06:14:51;;;;;;;16.60;10.82;;;18.60;79.40;;;;;;5078579;28;20104;-67
2021/07/20 06:17:21;;;;;;;18.58;10.32;;;18.60;79.10;;;;;;5078796;28;20039;-68
2021/07/20 06:19:47;;;;;;;19.45;10.50;;;18.50;77.80;;;;;;5062033;28;20197;-68
2021/07/20 06:22:12;;;;;;;15.60;9.20;;;18.60;78.20;;;;;;5061924;28;20059;-68
2021/07/20 06:24:45;;;;;;;17.05;10.02;;;18.60;78.90;;;;;;5068344;28;20220;-67
2021/07/20 06:27:11;;;;;;;17.70;10.25;;;18.70;78.00;;;;;;5049834;28;20029;-68
2021/07/20 06:29:37;;;;;;;19.25;9.68;;;18.70;78.40;;;;;;5065541;28;20029;-68
2021/07/20 06:32:03;;;;;;;16.70;9.50;;;18.80;77.90;;;;;;5064864;28;20040;-67
2021/07/20 06:34:28;;;;;;;17.63;9.38;;;18.80;77.90;;;;;;5064944;28;20382;-68
2021/07/20 06:36:55;;;;;;;15.10;9.48;;;18.80;76.90;;;;;;5048245;28;20029;-68
2021/07/20 06:39:20;;;;;;;15.75;9.40;;;18.80;76.30;;;;;;5065565;28;20048;-68
2021/07/20 06:41:46;;;;;;;15.13;9.00;;;18.80;76.50;;;;;;5064738;28;20083;-68
2021/07/20 06:44:11;;;;;;;16.13;9.55;;;18.80;76.00;;;;;;5048227;28;20409;-68
2021/07/20 06:46:37;;;;;;;14.65;9.55;;;18.90;76.90;;;;;;5064740;28;20079;-68
2021/07/20 06:49:03;;;;;;;14.48;9.25;;;19.00;76.00;;;;;;5064840;28;20092;-69
2021/07/20 06:51:29;;;;;;;17.90;9.65;;;19.00;76.10;;;;;;5064965;28;20075;-68
2021/07/20 06:53:54;;;;;;;19.13;9.25;;;19.10;76.30;;;;;;5065085;28;20044;-68
2021/07/20 06:56:24;;;;;;;14.90;9.00;;;19.20;75.70;;;;;;5065079;28;20242;-68
2021/07/20 06:58:49;;;;;;;17.45;9.57;;;19.30;76.30;;;;;;5064677;28;20212;-67
2021/07/20 07:01:15;;;;;;;15.98;8.73;;;19.30;74.70;;;;;;5064424;28;20096;-67
2021/07/20 07:03:47;;;;;;;16.55;9.18;;;19.30;74.40;;;;;;5064959;28;20033;-67
2021/07/20 07:06:13;;;;;;;17.27;9.43;;;19.40;75.50;;;;;;5064895;28;20036;-67
2021/07/20 07:08:38;;;;;;;17.63;8.85;;;19.40;75.00;;;;;;5064897;28;20041;-67
2021/07/20 07:11:04;;;;;;;13.70;8.25;;;19.50;75.00;;;;;;5064746;28;20336;-67
2021/07/20 07:13:30;;;;;;;12.80;8.48;;;19.70;73.40;;;;;;5056518;28;20113;-67
2021/07/20 07:15:56;;;;;;;20.70;9.88;;;19.80;74.30;;;;;;5067555;28;20024;-67
2021/07/20 07:18:22;;;;;;;13.98;8.40;;;19.90;74.60;;;;;;5084960;28;20040;-67
2021/07/20 07:20:50;;;;;;;13.63;9.30;;;20.10;74.60;;;;;;5084167;28;20059;-67
2021/07/20 07:23:17;;;;;;;15.80;9.35;;;20.00;75.60;;;;;;5084645;28;20117;-68
2021/07/20 07:25:44;;;;;;;15.35;9.07;;;20.10;75.30;;;;;;5084084;28;20032;-69
2021/07/20 07:28:10;;;;;;;15.05;8.68;;;20.20;75.40;;;;;;5084011;28;20032;-69
2021/07/20 07:30:35;;;;;;;13.57;8.88;;;20.30;72.50;;;;;;5067237;28;20069;-68
2021/07/20 07:33:01;;;;;;;12.40;8.50;;;20.30;72.80;;;;;;5084760;28;20127;-68
2021/07/20 07:35:29;;;;;;;14.70;8.40;;;20.30;72.90;;;;;;5083435;28;20343;-68
2021/07/20 07:37:54;;;;;;;15.48;8.50;;;20.40;72.10;;;;;;5084122;28;20037;-69
2021/07/20 07:40:20;;;;;;;16.80;8.85;;;20.40;71.70;;;;;;5084001;28;20040;-68
2021/07/20 07:42:45;;;;;;;14.02;8.40;;;20.50;72.30;;;;;;5083848;28;20058;-68
2021/07/20 07:45:12;;;;;;;14.73;8.38;;;20.70;70.80;;;;;;5084753;28;20042;-68
2021/07/20 07:47:38;;;;;;;16.45;8.48;;;20.80;70.50;;;;;;5084012;28;20040;-68
2021/07/20 07:50:07;;;;;;;14.73;8.38;;;20.80;69.90;;;;;;5084072;28;20044;-68
2021/07/20 07:52:34;;;;;;;14.63;8.75;;;21.00;69.30;;;;;;5083701;28;20055;-68
2021/07/20 07:55:00;;;;;;;13.32;8.60;;;21.20;69.90;;;;;;5083664;28;20324;-68
2021/07/20 07:57:25;;;;;;;16.70;8.30;;;21.30;68.80;;;;;;5083535;28;20092;-69
2021/07/20 07:59:54;;;;;;;18.75;8.55;;;21.30;67.50;;;;;;5067800;28;20040;-68
2021/07/20 08:02:23;;;;;;;15.02;8.43;;;21.50;67.00;;;;;;5067378;28;20038;-67
2021/07/20 08:04:48;;;;;;;12.60;8.40;;;21.60;66.90;;;;;;5066578;28;20029;-68
2021/07/20 08:07:14;;;;;;;13.30;7.68;;;21.80;66.00;;;;;;5066628;28;20035;-68
2021/07/20 08:09:39;;;;;;;13.77;7.78;;;22.10;65.80;;;;;;5083115;28;20324;-68
2021/07/20 08:12:06;;;;;;;13.38;8.02;;;22.30;64.50;;;;;;5083707;28;20111;-68
2021/07/20 08:14:31;;;;;;;12.32;7.40;;;22.40;64.20;;;;;;5083587;28;20351;-68
2021/07/20 08:17:01;;;;;;;13.18;7.55;;;22.40;62.40;;;;;;5084264;28;20032;-68
2021/07/20 08:19:27;;;;;;;14.60;7.82;;;22.40;63.70;;;;;;5083201;28;20032;-68
2021/07/20 08:21:58;;;;;;;14.40;8.23;;;22.50;63.00;;;;;;5066343;28;20074;-68
2021/07/20 08:24:24;;;;;;;15.23;7.32;;;22.60;62.70;;;;;;5083616;28;20028;-68
2021/07/20 08:26:52;;;;;;;13.85;7.63;;;22.40;61.80;;;;;;5082944;28;20046;-68
2021/07/20 08:29:19;;;;;;;15.45;7.78;;;22.50;60.30;;;;;;5083364;28;20059;-68
2021/07/20 08:31:56;;;;;;;13.15;7.97;;;22.60;57.20;;;;;;5082814;28;20078;-68
2021/07/20 08:34:22;;;;;;;11.93;6.97;;;22.80;57.80;;;;;;5082859;28;20029;-68
2021/07/20 08:36:48;;;;;;;11.70;7.60;;;23.00;58.30;;;;;;5082781;28;20028;-68
2021/07/20 08:39:13;;;;;;;11.23;7.60;;;23.20;61.00;;;;;;5066462;28;20185;-68
2021/07/20 08:41:59;;;;;;;19.42;7.93;;;23.20;60.40;;;;;;5083137;28;20028;-68
2021/07/20 08:45:02;;;;;;;14.02;7.30;;;23.20;60.10;;;;;;5082720;28;20096;-68
2021/07/20 08:47:50;;;;;;;13.25;7.22;;;23.40;58.00;;;;;;5083901;28;20035;-68
2021/07/20 08:50:20;;;;;;;16.00;7.15;;;23.70;58.50;;;;;;5082734;28;20096;-68
2021/07/20 08:53:03;;;;;;;10.68;7.18;;;23.80;60.00;;;;;;5066057;28;20036;-68
2021/07/20 08:55:29;;;;;;;12.88;7.28;;;23.80;58.90;;;;;;5082863;28;20024;-68
2021/07/20 08:58:02;;;;;;;10.93;7.28;;;24.00;55.60;;;;;;5082540;28;20385;-68
2021/07/20 09:00:37;;;;;;;10.30;6.50;;;24.10;57.40;;;;;;5082576;28;20216;-68
2021/07/20 09:03:32;;;;;;;14.88;7.38;;;24.20;52.70;;;;;;5066861;28;20032;-68
2021/07/20 09:06:04;;;;;;;11.55;6.85;;;24.00;55.10;;;;;;5069679;28;20321;-68
2021/07/20 09:08:57;;;;;;;12.35;6.55;;;24.00;53.70;;;;;;5082898;28;20033;-71
2021/07/20 09:11:57;;;;;;;10.07;7.07;;;24.10;55.50;;;;;;5068539;28;20139;-68
2021/07/20 09:14:32;;;;;;;11.50;6.97;;;24.30;55.60;;;;;;5082432;28;20101;-67
2021/07/20 09:17:11;;;;;;;11.20;6.80;;;24.20;55.70;;;;;;5083324;28;20090;-70
2021/07/20 09:19:50;;;;;;;12.27;6.57;;;24.20;53.20;;;;;;5082403;28;20021;-69
2021/07/20 09:22:20;;;;;;;14.97;7.33;;;24.40;52.30;;;;;;5083401;28;20041;-67
2021/07/20 09:24:59;;;;;;;13.05;7.03;;;24.40;53.70;;;;;;5082536;28;20266;-70
2021/07/20 09:28:02;;;;;;;15.52;7.43;;;24.60;53.10;;;;;;5083021;28;20185;-65
2021/07/20 09:30:31;;;;;;;11.02;7.20;;;24.70;55.50;;;;;;5083788;28;20056;-67
2021/07/20 09:33:16;;;;;;;11.38;7.47;;;24.70;50.80;;;;;;5082616;28;20024;-69
2021/07/20 09:35:49;;;;;;;12.82;7.45;;;24.70;55.90;;;;;;5067695;28;20035;-68
2021/07/20 09:38:27;;;;;;;12.63;7.40;;;24.40;56.80;;;;;;5065946;28;20047;-67
2021/07/20 09:41:20;;;;;;;15.32;7.63;;;24.50;53.80;;;;;;5082488;28;20082;-66
2021/07/20 09:43:53;;;;;;;10.93;7.80;;;24.60;55.10;;;;;;5082269;28;20040;-67
2021/07/20 09:46:37;;;;;;;11.15;7.20;;;24.50;54.90;;;;;;5082461;28;20070;-69
2021/07/20 09:49:05;;;;;;;12.95;8.18;;;24.50;54.70;;;;;;5082240;28;20024;-66
2021/07/20 09:51:49;;;;;;;15.43;7.70;;;24.60;55.30;;;;;;5082308;28;20035;-67
2021/07/20 09:54:36;;;;;;;12.68;7.70;;;24.70;57.00;;;;;;5065867;28;20079;-67
2021/07/20 09:57:16;;;;;;;14.45;8.23;;;24.60;56.70;;;;;;5082413;28;20216;-67
2021/07/20 10:00:18;;;;;;;15.80;7.90;;;24.80;54.30;;;;;;5068163;28;20025;-67
2021/07/20 10:02:47;;;;;;;12.35;6.93;;;25.00;52.00;;;;;;5069736;28;20085;-67
2021/07/20 10:05:17;;;;;;;14.57;8.40;;;25.10;53.90;;;;;;5087180;28;20331;-67
2021/07/20 10:07:50;;;;;;;11.73;8.13;;;24.90;50.20;;;;;;5086002;28;20095;-67
2021/07/20 10:10:25;;;;;;;13.80;8.32;;;24.50;51.30;;;;;;5085871;28;20032;-67
2021/07/20 10:13:21;;;;;;;12.90;8.48;;;24.50;51.50;;;;;;5085419;28;20048;-67
2021/07/20 10:15:59;;;;;;;12.95;8.10;;;24.80;54.10;;;;;;5086542;28;20039;-67
2021/07/20 10:18:30;;;;;;;14.40;8.25;;;24.70;53.20;;;;;;5085323;28;20319;-69
2021/07/20 10:20:58;;;;;;;;;;;24.60;53.00;;;;;;5086629;28;20032;-67
2021/07/20 10:23:35;;;;;;;14.57;7.68;;;25.00;53.80;;;;;;5085751;28;19968;-67
2021/07/20 10:26:15;;;;;;;11.57;8.30;;;25.00;55.70;;;;;;5085345;28;20070;-67
2021/07/20 10:28:47;;;;;;;12.57;8.70;;;24.80;57.50;;;;;;5085333;28;20037;-67
2021/07/20 10:31:18;;;;;;;14.48;8.07;;;24.50;57.10;;;;;;5085338;28;20044;-67
2021/07/20 10:33:46;;;;;;;15.93;8.82;;;24.40;56.10;;;;;;5085287;28;20354;-68
2021/07/20 10:36:19;;;;;;;13.43;8.68;;;24.20;53.80;;;;;;5085812;28;20069;-68
2021/07/20 10:38:50;;;;;;;16.55;9.02;;;24.00;54.70;;;;;;5068803;28;20327;-67
2021/07/20 10:41:18;;;;;;;15.95;8.70;;;24.10;56.50;;;;;;5068725;28;20037;-67
2021/07/20 10:43:59;;;;;;;16.85;8.82;;;24.10;57.30;;;;;;5085223;28;20040;-67
2021/07/20 10:46:25;;;;;;;14.50;8.93;;;24.40;56.80;;;;;;5068465;28;20104;-67
2021/07/20 10:48:53;;;;;;;16.73;9.55;;;24.60;57.90;;;;;;5085049;28;20051;-67
2021/07/20 10:51:25;;;;;;;13.95;9.57;;;24.80;56.70;;;;;;5085644;28;20028;-67
2021/07/20 10:53:57;;;;;;;17.73;9.00;;;25.00;55.50;;;;;;5085423;28;20220;-67
2021/07/20 10:56:36;;;;;;;12.65;8.45;;;24.80;50.80;;;;;;5085179;28;20043;-67
2021/07/20 10:59:26;;;;;;;11.98;8.38;;;24.70;52.10;;;;;;5085879;28;20036;-71
2021/07/20 11:02:04;;;;;;;14.30;9.18;;;24.80;51.80;;;;;;5086166;28;20032;-71
2021/07/20 11:05:00;;;;;;;18.10;9.50;;;24.50;54.00;;;;;;5085876;28;20032;-71
2021/07/20 11:07:40;;;;;;;15.13;10.18;;;24.40;56.30;;;;;;5084718;28;20037;-71
2021/07/20 11:10:30;;;;;;;16.98;10.02;;;24.20;56.80;;;;;;5069216;28;20033;-69
2021/07/20 11:12:57;;;;;;;14.60;9.70;;;23.90;53.60;;;;;;5085255;28;20044;-70
2021/07/20 11:15:23;;;;;;;12.93;8.93;;;24.00;54.90;;;;;;5068119;28;20033;-70
2021/07/20 11:17:49;;;;;;;17.13;9.77;;;24.30;54.90;;;;;;5084216;28;20232;-69
2021/07/20 11:20:17;;;;;;;13.82;9.35;;;24.50;56.90;;;;;;5084253;28;20107;-70
2021/07/20 11:22:43;;;;;;;15.85;10.00;;;24.50;53.40;;;;;;5084124;28;20024;-70
2021/07/20 11:25:09;;;;;;;15.18;10.05;;;24.40;55.30;;;;;;5085225;28;20040;-69
2021/07/20 11:27:39;;;;;;;18.40;9.55;;;24.30;54.10;;;;;;5068087;28;20189;-69
2021/07/20 11:30:07;;;;;;;17.23;10.10;;;24.20;54.80;;;;;;5085878;28;20330;-69
2021/07/20 11:32:33;;;;;;;13.10;9.48;;;24.40;54.50;;;;;;5085437;28;20032;-69
2021/07/20 11:35:14;;;;;;;16.73;10.27;;;24.80;54.50;;;;;;5083799;28;20071;-69
2021/07/20 11:38:12;;;;;;;18.90;9.77;;;25.10;55.70;;;;;;5068368;28;20075;-69
2021/07/20 11:40:56;;;;;;;17.35;10.15;;;25.20;50.70;;;;;;5084265;28;20254;-69
2021/07/20 11:43:36;;;;;;;15.43;9.73;;;25.30;49.60;;;;;;5083736;28;20219;-69
2021/07/20 11:46:07;;;;;;;13.50;9.47;;;25.10;48.70;;;;;;5083824;28;20101;-69
2021/07/20 11:48:44;;;;;;;16.27;9.15;;;24.80;52.40;;;;;;5084204;28;20278;-70
2021/07/20 11:51:22;;;;;;;14.02;9.82;;;24.80;53.40;;;;;;5084442;28;20287;-66
2021/07/20 11:54:17;;;;;;;13.30;9.60;;;24.70;53.70;;;;;;5083966;28;20032;-68
2021/07/20 11:56:58;;;;;;;17.02;10.15;;;24.80;54.30;;;;;;5084145;28;20035;-69
2021/07/20 11:59:48;;;;;;;16.65;11.07;;;24.90;54.70;;;;;;5084939;28;20203;-68
2021/07/20 12:02:17;;;;;;;16.73;10.63;;;25.20;55.40;;;;;;5069088;28;20074;-69
2021/07/20 12:04:47;;;;;;;15.60;10.13;;;25.30;53.60;;;;;;5084749;28;20052;-70
2021/07/20 12:07:29;;;;;;;14.30;9.60;;;25.50;54.60;;;;;;5066675;28;20040;-72
2021/07/20 12:10:16;;;;;;;15.57;9.88;;;25.80;56.30;;;;;;5066691;28;20037;-73
2021/07/20 12:12:49;;;;;;;16.13;9.98;;;26.00;54.40;;;;;;5083628;28;20110;-73
2021/07/20 12:15:16;;;;;;;14.02;9.45;;;26.10;51.20;;;;;;5084279;28;20268;-71
2021/07/20 12:17:42;;;;;;;15.82;10.05;;;26.20;55.10;;;;;;5083555;28;20035;-70
2021/07/20 12:20:09;;;;;;;15.25;10.65;;;26.20;52.00;;;;;;5084575;28;20346;-71
2021/07/20 12:22:34;;;;;;;17.20;10.73;;;25.80;51.20;;;;;;5291051;22;20407;-69
2021/07/20 12:25:05;;;;;;;14.82;10.18;;;25.70;48.60;;;;;;5042926;28;20265;-71
2021/07/20 12:27:30;;;;;;;14.43;9.35;;;25.90;52.60;;;;;;5026628;28;20029;-68
2021/07/20 12:29:56;;;;;;;15.77;10.77;;;25.80;49.30;;;;;;5043302;28;20017;-68
2021/07/20 12:32:21;;;;;;;15.43;10.60;;;25.70;50.20;;;;;;5010267;28;20037;-68
2021/07/20 12:34:50;;;;;;;18.70;11.63;;;25.90;53.10;;;;;;5043359;28;20033;-68
2021/07/20 12:37:17;;;;;;;17.80;11.75;;;25.80;52.00;;;;;;5043007;28;20021;-68
2021/07/20 12:39:43;;;;;;;18.40;12.23;;;25.90;52.20;;;;;;5026373;28;20064;-68
2021/07/20 12:42:08;;;;;;;16.85;11.38;;;25.80;48.00;;;;;;5043769;28;20029;-68
2021/07/20 12:44:35;;;;;;;18.60;12.25;;;26.00;50.30;;;;;;5042899;28;20148;-68
2021/07/20 12:47:08;;;;;;;19.40;12.07;;;25.90;49.50;;;;;;5042994;28;20096;-68
2021/07/20 12:49:35;;;;;;;18.27;12.10;;;26.10;51.30;;;;;;5026142;28;20037;-68
2021/07/20 12:52:00;;;;;;;17.60;11.93;;;25.80;49.00;;;;;;5043720;28;20359;-68
2021/07/20 12:54:40;;;;;;;16.85;11.90;;;25.70;51.90;;;;;;5042558;28;20025;-68
2021/07/20 12:57:06;;;;;;;16.00;11.15;;;25.70;52.90;;;;;;5043136;28;20018;-68
2021/07/20 12:59:35;;;;;;;18.23;12.00;;;25.50;52.80;;;;;;5010075;28;20241;-68
2021/07/20 13:02:02;;;;;;;17.30;11.38;;;25.70;53.80;;;;;;5025917;28;20336;-69
2021/07/20 13:04:27;;;;;;;20.23;11.98;;;25.80;53.60;;;;;;5042408;28;20033;-69
2021/07/20 13:06:53;;;;;;;19.17;11.70;;;25.70;52.50;;;;;;5042363;28;20025;-71
2021/07/20 13:09:19;;;;;;;22.30;12.40;;;25.70;53.50;;;;;;5043277;28;20344;-71
2021/07/20 13:11:45;;;;;;;20.05;12.50;;;25.60;52.80;;;;;;5026415;28;20224;-71
2021/07/20 13:14:11;;;;;;;18.88;12.07;;;25.40;54.70;;;;;;5009736;28;20036;-71
2021/07/20 13:16:39;;;;;;;18.00;12.45;;;25.30;54.10;;;;;;5042468;28;20040;-71
2021/07/20 13:19:05;;;;;;;17.88;12.02;;;25.30;53.70;;;;;;5042855;28;20036;-71
2021/07/20 13:21:39;;;;;;;18.85;12.63;;;25.40;53.60;;;;;;5042317;28;20029;-71
2021/07/20 13:24:05;;;;;;;19.65;12.50;;;25.50;52.30;;;;;;5026925;28;20042;-71
2021/07/20 13:26:31;;;;;;;16.92;11.35;;;25.50;50.30;;;;;;5043372;28;20033;-71
2021/07/20 13:29:03;;;;;;;18.30;12.68;;;25.40;51.90;;;;;;5042330;28;20034;-71
2021/07/20 13:31:34;;;;;;;16.80;11.85;;;25.50;54.20;;;;;;5042346;28;20029;-71
2021/07/20 13:34:00;;;;;;;20.13;12.48;;;25.60;53.70;;;;;;5026959;28;20041;-71
2021/07/20 13:36:30;;;;;;;19.40;12.88;;;25.50;53.60;;;;;;5046139;28;20056;-71
2021/07/20 13:38:56;;;;;;;20.67;13.40;;;25.60;53.10;;;;;;5046900;28;20040;-71
2021/07/20 13:41:21;;;;;;;20.70;12.98;;;25.50;52.50;;;;;;5030054;28;20041;-71
2021/07/20 13:43:47;;;;;;;19.35;12.48;;;25.50;53.90;;;;;;5029912;28;20037;-71
2021/07/20 13:46:12;;;;;;;21.48;14.07;;;25.50;55.80;;;;;;5029623;28;20040;-71
2021/07/20 13:48:45;;;;;;;21.30;13.45;;;25.50;52.20;;;;;;5045986;28;20033;-71
2021/07/20 13:51:11;;;;;;;19.90;12.73;;;25.60;52.70;;;;;;5030684;28;20041;-71
2021/07/20 13:53:37;;;;;;;20.55;12.48;;;25.60;52.90;;;;;;5029881;28;20279;-71
2021/07/20 13:56:33;;;;;;;19.75;12.00;;;25.60;53.60;;;;;;5029332;28;20079;-71
2021/07/20 13:59:00;;;;;;;20.00;12.88;;;25.80;53.20;;;;;;5038113;28;20033;-71
2021/07/20 14:01:26;;;;;;;18.48;12.80;;;25.90;53.90;;;;;;5029462;28;20030;-70
2021/07/20 14:03:51;;;;;;;19.30;13.07;;;26.00;53.20;;;;;;5045763;28;20378;-72
2021/07/20 14:06:18;;;;;;;21.08;12.85;;;26.00;54.10;;;;;;5046171;28;20055;-71
2021/07/20 14:08:44;;;;;;;20.92;12.85;;;25.90;54.30;;;;;;5029619;28;20328;-72
2021/07/20 14:11:10;;;;;;;18.67;12.70;;;25.90;54.60;;;;;;5045474;28;20037;-72
2021/07/20 14:13:36;;;;;;;18.67;13.30;;;26.00;54.30;;;;;;5045261;28;20105;-72
2021/07/20 14:16:03;;;;;;;21.08;13.13;;;25.90;53.00;;;;;;5045439;28;20045;-74
2021/07/20 14:18:31;;;;;;;19.40;13.20;;;25.90;52.50;;;;;;5028707;28;20045;-72
2021/07/20 14:20:57;;;;;;;20.38;13.82;;;26.00;52.10;;;;;;5029601;28;20048;-71
2021/07/20 14:23:22;;;;;;;18.35;13.00;;;25.90;51.70;;;;;;5028699;28;20105;-72
2021/07/20 14:25:49;;;;;;;18.83;12.52;;;25.90;50.80;;;;;;5045548;28;20029;-71
2021/07/20 14:28:15;;;;;;;19.42;13.15;;;26.00;53.00;;;;;;5028929;28;20072;-72
2021/07/20 14:30:45;;;;;;;20.45;12.98;;;26.10;52.40;;;;;;5028963;28;20037;-71
2021/07/20 14:33:12;;;;;;;22.27;13.57;;;26.10;52.70;;;;;;5029550;28;20045;-71
2021/07/20 14:35:37;;;;;;;18.80;12.80;;;26.00;53.00;;;;;;5029127;28;20265;-71
2021/07/20 14:38:03;;;;;;;20.40;14.20;;;26.00;53.10;;;;;;5045335;28;20197;-72
2021/07/20 14:40:32;;;;;;;20.02;13.52;;;26.00;52.70;;;;;;5028563;28;20061;-72
2021/07/20 14:43:05;;;;;;;20.70;12.10;;;26.00;52.10;;;;;;5028393;28;20037;-71
2021/07/20 14:45:31;;;;;;;20.80;13.30;;;25.90;51.60;;;;;;5045325;28;20026;-71
2021/07/20 14:48:09;;;;;;;18.67;12.68;;;25.90;52.00;;;;;;5045394;28;20021;-71
2021/07/20 14:50:37;;;;;;;18.65;11.80;;;25.90;52.50;;;;;;5045399;28;20096;-72
2021/07/20 14:53:28;;;;;;;18.38;12.18;;;25.90;51.00;;;;;;5012256;28;20030;-71
2021/07/20 14:55:58;;;;;;;18.80;12.32;;;25.90;51.80;;;;;;5028657;28;20324;-72
2021/07/20 14:58:27;;;;;;;20.45;12.63;;;26.00;53.10;;;;;;5044835;28;20111;-71
2021/07/20 15:01:09;;;;;;;18.98;12.52;;;26.00;50.10;;;;;;5039149;28;20038;-71
2021/07/20 15:03:37;;;;;;;16.65;11.75;;;25.90;51.50;;;;;;5045824;28;20083;-71
2021/07/20 15:06:23;;;;;;;19.98;12.45;;;26.00;52.20;;;;;;5046185;28;20029;-71
2021/07/20 15:08:50;;;;;;;24.10;13.38;;;26.00;51.90;;;;;;5028679;28;20270;-70
2021/07/20 15:11:47;;;;;;;19.85;13.23;;;25.90;50.60;;;;;;5044931;28;20041;-72
2021/07/20 15:14:31;;;;;;;18.10;12.32;;;25.80;49.70;;;;;;5044529;28;20136;-71
2021/07/20 15:16:57;;;;;;;21.23;13.30;;;25.90;52.30;;;;;;5044585;28;20041;-68
2021/07/20 15:19:36;;;;;;;20.77;12.77;;;25.80;50.30;;;;;;5044693;28;20033;-68
2021/07/20 15:22:14;;;;;;;20.60;12.73;;;25.80;51.50;;;;;;5045615;28;20060;-68
2021/07/20 15:24:41;;;;;;;20.15;12.65;;;25.90;51.10;;;;;;5044061;28;20037;-68
2021/07/20 15:27:09;;;;;;;21.30;13.32;;;25.80;51.50;;;;;;5044704;28;20025;-70
2021/07/20 15:29:45;;;;;;;19.65;13.05;;;25.70;51.30;;;;;;5028230;28;20214;-69
2021/07/20 15:32:12;;;;;;;23.13;13.18;;;25.60;53.10;;;;;;5044336;28;20033;-69
2021/07/20 15:34:37;;;;;;;21.33;12.30;;;25.50;51.70;;;;;;5027837;28;20040;-68
2021/07/20 15:37:05;;;;;;;18.75;13.27;;;25.50;50.40;;;;;;5045117;28;20025;-69
2021/07/20 15:39:47;;;;;;;21.73;13.85;;;25.50;52.50;;;;;;5027579;28;20040;-69
2021/07/20 15:42:39;;;;;;;21.20;12.95;;;25.40;51.80;;;;;;5029274;28;20032;-69
2021/07/20 15:45:09;;;;;;;24.45;13.80;;;25.40;53.30;;;;;;5020899;28;20324;-69
2021/07/20 15:47:37;;;;;;;22.80;13.85;;;25.30;52.20;;;;;;5044227;28;20037;-69
2021/07/20 15:50:07;;;;;;;24.25;14.20;;;25.30;51.60;;;;;;5043780;28;20336;-70
2021/07/20 15:52:35;;;;;;;19.92;12.90;;;25.30;53.00;;;;;;5027835;28;20037;-69
2021/07/20 15:55:01;;;;;;;20.42;12.80;;;25.30;52.10;;;;;;5043971;28;20384;-69
2021/07/20 15:57:26;;;;;;;18.95;12.65;;;25.30;53.10;;;;;;5044037;28;20056;-69
2021/07/20 15:59:52;;;;;;;22.80;12.68;;;25.30;53.20;;;;;;5044315;28;20030;-69
2021/07/20 16:02:17;;;;;;;19.52;12.48;;;25.10;50.60;;;;;;5027372;28;20033;-69
2021/07/20 16:04:47;;;;;;;19.88;13.07;;;25.00;50.80;;;;;;5043352;28;20048;-71
2021/07/20 16:07:16;;;;;;;18.33;12.48;;;24.90;52.60;;;;;;5043317;28;20227;-70
2021/07/20 16:09:48;;;;;;;21.10;12.60;;;24.90;52.50;;;;;;5026837;28;20033;-70
2021/07/20 16:12:14;;;;;;;18.75;11.98;;;24.90;52.90;;;;;;5044789;28;20033;-71
2021/07/20 16:14:39;;;;;;;20.33;12.65;;;25.00;53.10;;;;;;5043757;28;20040;-71
2021/07/20 16:17:05;;;;;;;17.90;12.40;;;24.90;53.70;;;;;;5043133;28;20092;-71
2021/07/20 16:19:30;;;;;;;20.50;12.88;;;24.80;52.90;;;;;;5026802;28;20037;-70
2021/07/20 16:21:57;;;;;;;17.98;12.13;;;24.80;53.60;;;;;;5010434;28;20091;-69
2021/07/20 16:24:23;;;;;;;20.48;12.93;;;24.80;53.10;;;;;;5010607;28;20045;-71
2021/07/20 16:26:49;;;;;;;19.70;12.68;;;24.70;53.90;;;;;;5027242;28;20045;-73
2021/07/20 16:29:15;;;;;;;18.00;12.02;;;24.70;53.20;;;;;;5027046;28;20040;-72
2021/07/20 16:31:41;;;;;;;20.98;12.77;;;24.70;52.50;;;;;;5026705;28;20037;-72
2021/07/20 16:34:06;;;;;;;21.10;12.48;;;24.70;52.20;;;;;;5009856;28;20036;-71
2021/07/20 16:36:33;;;;;;;21.85;12.50;;;24.70;53.90;;;;;;5010613;28;20088;-74
2021/07/20 16:38:59;;;;;;;19.65;12.73;;;24.60;52.10;;;;;;5027097;28;20042;-74
2021/07/20 16:41:25;;;;;;;19.67;11.85;;;24.60;52.80;;;;;;5043382;28;20095;-71
2021/07/20 16:43:51;;;;;;;18.73;12.95;;;24.50;52.90;;;;;;5026093;28;20030;-71
2021/07/20 16:46:24;;;;;;;22.08;12.27;;;24.50;53.80;;;;;;5042604;28;20080;-72
2021/07/20 16:48:51;;;;;;;20.75;13.35;;;24.50;53.00;;;;;;5027661;28;20034;-74
2021/07/20 16:51:18;;;;;;;19.40;12.80;;;24.50;53.70;;;;;;5026928;28;20316;-72
2021/07/20 16:53:53;;;;;;;18.67;12.65;;;24.40;52.40;;;;;;5042713;28;20064;-74
2021/07/20 16:56:21;;;;;;;21.08;12.60;;;24.40;50.50;;;;;;5010447;28;20260;-71
2021/07/20 16:58:50;;;;;;;18.58;11.98;;;24.30;54.30;;;;;;5042858;28;20093;-68
2021/07/20 17:01:23;;;;;;;20.58;12.60;;;24.30;53.50;;;;;;5042518;28;20035;-75
2021/07/20 17:03:51;;;;;;;20.08;12.50;;;24.20;54.00;;;;;;5042593;28;20041;-79
2021/07/20 17:06:17;;;;;;;25.25;12.43;;;24.10;54.70;;;;;;5026809;28;20088;-74
2021/07/20 17:08:45;;;;;;;27.23;16.58;;;24.10;53.40;;;;;;4993377;28;20033;-77
2021/07/20 17:11:10;;;;;;;26.73;14.77;;;24.00;53.40;;;;;;5042475;28;20041;-71
2021/07/20 17:13:36;;;;;;;20.10;12.30;;;24.00;54.90;;;;;;5042502;28;20041;-78
2021/07/20 17:16:01;;;;;;;19.65;12.35;;;23.90;54.00;;;;;;5026051;28;20041;-78
2021/07/20 17:18:27;;;;;;;17.10;11.73;;;23.80;54.00;;;;;;5025871;28;20029;-79
2021/07/20 17:20:57;;;;;;;17.85;11.93;;;23.80;53.60;;;;;;5026770;28;20039;-76
2021/07/20 17:23:23;;;;;;;18.27;11.68;;;23.70;56.00;;;;;;5025931;28;20037;-69
2021/07/20 17:26:01;;;;;;;16.98;10.73;;;23.50;54.30;;;;;;5009386;28;20040;-73
2021/07/20 17:28:27;;;;;;;19.42;11.75;;;23.50;54.90;;;;;;5042269;28;20053;-72
2021/07/20 17:30:54;;;;;;;16.45;11.55;;;23.50;54.10;;;;;;5042216;28;20033;-72
2021/07/20 17:33:20;;;;;;;19.10;11.70;;;23.40;54.30;;;;;;5042056;28;20045;-73
2021/07/20 17:35:46;;;;;;;16.02;10.85;;;23.30;55.00;;;;;;5026278;28;20332;-74
2021/07/20 17:38:12;;;;;;;16.25;10.38;;;23.30;56.10;;;;;;5042537;28;20040;-71
2021/07/20 17:40:37;;;;;;;17.02;11.05;;;23.30;54.30;;;;;;5043251;28;20270;-72
2021/07/20 17:43:03;;;;;;;15.73;10.65;;;23.30;55.30;;;;;;5042290;28;20033;-72
2021/07/20 17:45:28;;;;;;;17.48;10.45;;;23.20;56.00;;;;;;5026035;28;20313;-72
2021/07/20 17:47:58;;;;;;;16.55;10.20;;;23.20;55.50;;;;;;5043681;28;20079;-72
2021/07/20 17:50:26;;;;;;;15.05;9.70;;;23.10;55.50;;;;;;5026292;28;20044;-72
2021/07/20 17:52:53;;;;;;;17.10;10.02;;;23.00;56.10;;;;;;5042342;28;20103;-71
2021/07/20 17:55:20;;;;;;;15.85;10.13;;;22.90;55.40;;;;;;5042192;28;20340;-72
2021/07/20 17:57:46;;;;;;;15.55;9.35;;;22.90;54.30;;;;;;5042106;28;20037;-69
2021/07/20 18:00:13;;;;;;;14.40;10.02;;;22.90;54.80;;;;;;5043552;28;20064;-69